createdAt,value
2019-05-22T00:02:39.956Z,16.85
2019-05-22T00:07:46.997Z,18.95
2019-05-22T00:12:54.336Z,22.97
2019-05-22T00:18:03.750Z,19.52
2019-05-22T00:23:12.773Z,22.50
2019-05-22T00:28:19.744Z,21.27
2019-05-22T00:33:26.380Z,23.10
2019-05-22T00:38:34.018Z,22.82
2019-05-22T00:43:42.653Z,24.33
2019-05-22T00:48:49.053Z,25.82
2019-05-22T00:54:13.486Z,25.83
2019-05-22T00:59:27.162Z,24.02
2019-05-22T01:04:38.420Z,24.00
2019-05-22T01:09:46.764Z,26.03
2019-05-22T01:14:53.747Z,24.80
2019-05-22T01:20:03.227Z,26.15
2019-05-22T01:25:11.661Z,27.25
2019-05-22T01:30:33.789Z,27.87
2019-05-22T01:35:44.788Z,28.03
2019-05-22T01:40:57.730Z,24.03
2019-05-22T01:46:06.671Z,27.77
2019-05-22T01:51:14.702Z,30.08
2019-05-22T01:56:21.565Z,30.08
2019-05-22T02:01:27.957Z,30.65
2019-05-22T02:06:36.585Z,32.53
2019-05-22T02:11:45.848Z,35.20
2019-05-22T02:16:56.713Z,35.13
2019-05-22T02:22:04.033Z,36.68
2019-05-22T02:27:11.552Z,36.23
2019-05-22T02:32:20.689Z,36.93
2019-05-22T02:37:28.661Z,37.10
2019-05-22T02:42:35.098Z,38.33
2019-05-22T02:47:43.059Z,37.33
2019-05-22T02:52:50.167Z,35.90
2019-05-22T02:57:56.809Z,30.00
2019-05-22T03:03:05.195Z,30.10
2019-05-22T03:08:11.732Z,30.43
2019-05-22T03:13:21.514Z,32.83
2019-05-22T03:18:28.487Z,28.75
2019-05-22T03:23:36.355Z,28.03
2019-05-22T03:28:43.207Z,27.73
2019-05-22T03:33:50.161Z,30.95
2019-05-22T03:38:58.430Z,27.27
2019-05-22T03:44:06.773Z,26.80
2019-05-22T03:49:29.159Z,29.00
2019-05-22T03:54:25.763Z,31.00
2019-05-22T03:59:31.972Z,35.38
2019-05-22T04:04:41.003Z,37.70
2019-05-22T04:09:49.746Z,40.47
2019-05-22T04:14:57.056Z,44.35
2019-05-22T04:20:07.792Z,46.88
2019-05-22T04:25:14.801Z,47.57
2019-05-22T04:30:21.599Z,50.60
2019-05-22T04:35:28.062Z,55.08
2019-05-22T04:40:55.497Z,60.67
2019-05-22T04:46:03.013Z,63.28
2019-05-22T04:51:38.997Z,61.95
2019-05-22T04:56:45.114Z,64.27
2019-05-22T05:01:51.558Z,62.85
2019-05-22T05:06:57.854Z,61.08
2019-05-22T05:12:05.523Z,62.87
2019-05-22T05:17:13.617Z,65.97
2019-05-22T05:22:26.558Z,70.20
2019-05-22T05:27:33.854Z,66.25
2019-05-22T05:32:41.190Z,71.63
2019-05-22T05:37:47.979Z,68.70
2019-05-22T05:42:55.270Z,72.90
2019-05-22T05:48:04.122Z,65.97
2019-05-22T05:53:20.224Z,64.53
2019-05-22T05:58:28.575Z,70.42
2019-05-22T06:03:40.051Z,62.40
2019-05-22T06:08:48.087Z,69.80
2019-05-22T06:13:55.309Z,64.17
2019-05-22T06:19:01.787Z,65.17
2019-05-22T06:24:30.065Z,67.65
2019-05-22T06:29:43.932Z,67.50
2019-05-22T06:34:51.124Z,70.07
2019-05-22T06:39:58.857Z,69.17
2019-05-22T06:45:06.053Z,67.73
2019-05-22T06:50:13.392Z,65.33
2019-05-22T06:55:19.812Z,65.30
2019-05-22T07:00:27.406Z,64.13
2019-05-22T07:05:33.849Z,62.10
2019-05-22T07:10:41.693Z,62.77
2019-05-22T07:15:52.265Z,55.08
2019-05-22T07:20:59.654Z,53.13
2019-05-22T07:26:06.776Z,54.98
2019-05-22T07:31:13.405Z,52.63
2019-05-22T07:36:21.953Z,46.28
2019-05-22T07:41:28.541Z,47.65
2019-05-22T07:46:34.746Z,51.25
2019-05-22T07:51:53.146Z,51.20
2019-05-22T07:56:49.856Z,53.07
2019-05-22T08:01:56.195Z,50.33
2019-05-22T08:07:03.593Z,49.23
2019-05-22T08:12:12.127Z,48.63
2019-05-22T08:17:20.493Z,58.92
2019-05-22T08:22:28.413Z,49.03
2019-05-22T08:27:36.044Z,48.28
2019-05-22T08:32:43.718Z,46.77
2019-05-22T08:37:51.395Z,43.65
2019-05-22T08:42:57.882Z,41.93
2019-05-22T08:48:04.360Z,42.73
2019-05-22T08:53:14.040Z,41.73
2019-05-22T08:58:21.685Z,43.40
2019-05-22T09:03:28.596Z,38.98
2019-05-22T09:08:34.874Z,40.40
2019-05-22T09:13:41.431Z,41.87
2019-05-22T09:18:48.137Z,41.40
2019-05-22T09:23:56.034Z,41.40
2019-05-22T09:29:02.530Z,40.80
2019-05-22T09:34:08.546Z,40.83
2019-05-22T09:39:15.717Z,42.58
2019-05-22T09:44:22.499Z,43.15
2019-05-22T09:49:29.502Z,43.23
2019-05-22T09:54:36.063Z,42.93
2019-05-22T09:59:42.164Z,45.80
2019-05-22T10:04:48.595Z,42.47
2019-05-22T10:09:54.754Z,43.02
2019-05-22T10:15:01.473Z,43.63
2019-05-22T10:20:10.802Z,40.58
2019-05-22T10:25:17.537Z,41.90
2019-05-22T10:30:25.291Z,43.83
2019-05-22T10:35:33.313Z,42.87
2019-05-22T10:40:39.758Z,41.40
2019-05-22T10:45:46.298Z,38.23
2019-05-22T10:50:52.933Z,42.75
2019-05-22T10:55:59.878Z,42.67
2019-05-22T11:01:08.545Z,44.67
2019-05-22T11:06:15.151Z,44.90
2019-05-22T11:11:21.830Z,47.85
2019-05-22T11:16:28.985Z,45.07
2019-05-22T11:21:35.869Z,47.57
2019-05-22T11:26:42.028Z,43.55
2019-05-22T11:31:48.851Z,42.57
2019-05-22T11:36:55.909Z,45.07
2019-05-22T11:42:03.110Z,40.75
2019-05-22T11:47:11.038Z,37.00
2019-05-22T11:52:18.665Z,40.73
2019-05-22T11:57:25.936Z,38.17
2019-05-22T12:02:32.877Z,37.93
2019-05-22T12:07:41.826Z,34.43
2019-05-22T12:12:49.649Z,33.43
2019-05-22T12:17:56.114Z,31.55
2019-05-22T12:23:02.682Z,28.92
2019-05-22T12:28:09.057Z,29.87
2019-05-22T12:33:15.313Z,29.07
2019-05-22T12:38:26.570Z,27.90
2019-05-22T12:43:32.697Z,22.48
2019-05-22T12:48:40.749Z,22.73
2019-05-22T12:53:47.718Z,23.57
2019-05-22T12:58:55.682Z,21.48
2019-05-22T13:04:04.965Z,20.83
2019-05-22T13:09:12.318Z,19.20
2019-05-22T13:14:19.246Z,16.95
2019-05-22T13:19:26.414Z,16.77
2019-05-22T13:24:35.222Z,14.33
2019-05-22T13:29:42.825Z,13.67
2019-05-22T13:34:49.999Z,11.15
2019-05-22T13:39:56.559Z,10.43
2019-05-22T13:45:04.857Z,9.20
2019-05-22T13:50:13.282Z,10.97
2019-05-22T13:55:20.586Z,8.75
2019-05-22T14:00:27.488Z,8.98
2019-05-22T14:05:35.323Z,8.30
2019-05-22T14:10:43.995Z,7.15
2019-05-22T14:15:56.367Z,6.90
2019-05-22T14:20:58.337Z,6.17
2019-05-22T14:26:04.779Z,7.33
2019-05-22T14:31:11.988Z,6.47
2019-05-22T14:36:19.355Z,7.83
2019-05-22T14:41:26.545Z,6.62
2019-05-22T14:46:33.731Z,7.72
2019-05-22T14:51:40.580Z,6.53
2019-05-22T14:56:46.828Z,7.22
2019-05-22T15:01:53.574Z,8.00
2019-05-22T15:07:00.486Z,10.00
2019-05-22T15:12:06.967Z,9.25
2019-05-22T15:17:31.119Z,11.03
2019-05-22T15:22:23.016Z,10.78
2019-05-22T15:27:29.949Z,10.73
2019-05-22T15:32:36.320Z,10.40
2019-05-22T15:37:43.666Z,14.03
2019-05-22T15:42:50.329Z,15.88
2019-05-22T15:47:58.411Z,16.70
2019-05-22T15:53:11.095Z,18.55
2019-05-22T15:58:17.956Z,17.63
2019-05-22T16:03:28.073Z,19.87
2019-05-22T16:08:34.810Z,18.83
2019-05-22T16:13:42.032Z,21.20
2019-05-22T16:18:49.937Z,19.90
2019-05-22T16:23:58.636Z,22.57
2019-05-22T16:29:07.006Z,22.05
2019-05-22T16:34:14.570Z,23.33
2019-05-22T16:39:21.770Z,22.75
2019-05-22T16:44:29.122Z,17.73
2019-05-22T16:49:36.913Z,16.03
2019-05-22T16:54:43.505Z,13.30
2019-05-22T16:59:51.141Z,12.68
2019-05-22T17:04:57.468Z,12.37
2019-05-22T17:10:04.653Z,10.47
2019-05-22T17:15:15.641Z,10.33
2019-05-22T17:20:24.769Z,14.95
2019-05-22T17:25:31.679Z,11.20
2019-05-22T17:30:38.522Z,8.80
2019-05-22T17:35:46.032Z,12.75
2019-05-22T17:40:52.185Z,8.83
2019-05-22T17:45:58.480Z,12.00
2019-05-22T17:51:05.228Z,11.30
2019-05-22T17:56:11.645Z,10.73
2019-05-22T18:01:18.697Z,11.05
2019-05-22T18:06:25.730Z,14.60
2019-05-22T18:11:31.943Z,12.30
2019-05-22T18:16:38.284Z,12.37
2019-05-22T18:21:45.151Z,13.20
2019-05-22T18:26:51.473Z,15.07
2019-05-22T18:32:01.871Z,13.68
2019-05-22T18:37:11.378Z,14.10
2019-05-22T18:42:21.442Z,13.40
2019-05-22T18:47:28.142Z,11.73
2019-05-22T18:52:41.074Z,15.00
2019-05-22T18:57:43.409Z,12.98
2019-05-22T19:02:49.607Z,16.32
2019-05-22T19:07:56.387Z,13.30
2019-05-22T19:13:02.728Z,15.10
2019-05-22T19:18:09.481Z,14.23
2019-05-22T19:23:16.039Z,16.23
2019-05-22T19:28:22.622Z,17.70
2019-05-22T19:33:29.311Z,18.35
2019-05-22T19:38:35.800Z,17.67
2019-05-22T19:43:42.181Z,17.50
2019-05-22T19:48:48.972Z,17.73
2019-05-22T19:53:56.067Z,15.73
2019-05-22T19:59:02.908Z,16.80
2019-05-22T20:04:09.931Z,16.82
2019-05-22T20:09:17.096Z,15.33
2019-05-22T20:14:24.362Z,16.10
2019-05-22T20:19:30.846Z,14.70
2019-05-22T20:24:37.641Z,15.27
2019-05-22T20:29:45.522Z,15.38
2019-05-22T20:34:52.054Z,14.10
2019-05-22T20:39:59.654Z,14.63
2019-05-22T20:45:07.008Z,15.77
2019-05-22T20:50:14.506Z,17.53
2019-05-22T20:55:21.268Z,15.80
2019-05-22T21:00:29.071Z,17.70
2019-05-22T21:05:37.487Z,16.57
2019-05-22T21:10:46.999Z,13.65
2019-05-22T21:16:07.456Z,16.07
2019-05-22T21:21:16.024Z,18.07
2019-05-22T21:26:23.253Z,19.47
2019-05-22T21:31:30.288Z,19.50
2019-05-22T21:36:37.132Z,20.33
2019-05-22T21:41:44.041Z,20.30
2019-05-22T21:46:51.906Z,19.37
2019-05-22T21:51:59.500Z,18.43
2019-05-22T21:57:06.711Z,17.52
2019-05-22T22:02:23.186Z,18.62
2019-05-22T22:07:30.513Z,16.37
2019-05-22T22:12:37.181Z,15.63
2019-05-22T22:17:46.176Z,15.33
2019-05-22T22:22:52.563Z,15.10
2019-05-22T22:27:58.797Z,17.25
2019-05-22T22:33:11.021Z,18.57
2019-05-22T22:38:17.938Z,17.97
2019-05-22T22:43:27.690Z,19.73
2019-05-22T22:48:36.741Z,18.12
2019-05-22T22:53:43.902Z,17.60
2019-05-22T22:58:50.704Z,17.23
2019-05-22T23:03:59.085Z,16.42
2019-05-22T23:09:08.292Z,16.77
2019-05-22T23:14:15.428Z,18.57
2019-05-22T23:19:33.658Z,18.30
2019-05-22T23:30:31.989Z,18.42
2019-05-22T23:35:38.240Z,18.67
2019-05-22T23:40:46.036Z,16.50
2019-05-22T23:45:52.897Z,16.33
2019-05-22T23:50:59.827Z,16.17
2019-05-22T23:56:06.773Z,19.50
